sensor_id;sensor_type;location;lat;lon;timestamp;P1;durP1;ratioP1;P2;durP2;ratioP2
74660;SDS011;63191;39.566;2.654;2023-03-01T00:01:15;8.90;;;2.90;;
74660;SDS011;63191;39.566;2.654;2023-03-01T00:03:42;10.50;;;3.00;;
74660;SDS011;63191;39.566;2.654;2023-03-01T00:06:10;12.40;;;3.20;;
74660;SDS011;63191;39.566;2.654;2023-03-01T00:08:36;10.40;;;2.20;;
74660;SDS011;63191;39.566;2.654;2023-03-01T00:11:09;10.30;;;2.30;;
74660;SDS011;63191;39.566;2.654;2023-03-01T00:13:38;10.70;;;2.40;;
74660;SDS011;63191;39.566;2.654;2023-03-01T00:16:05;14.00;;;2.80;;
74660;SDS011;63191;39.566;2.654;2023-03-01T00:18:33;10.90;;;2.90;;
74660;SDS011;63191;39.566;2.654;2023-03-01T00:20:59;14.50;;;3.90;;
74660;SDS011;63191;39.566;2.654;2023-03-01T00:23:26;15.50;;;2.80;;
74660;SDS011;63191;39.566;2.654;2023-03-01T00:25:52;9.10;;;2.30;;
74660;SDS011;63191;39.566;2.654;2023-03-01T00:28:19;8.90;;;2.60;;
74660;SDS011;63191;39.566;2.654;2023-03-01T00:30:45;11.30;;;3.10;;
74660;SDS011;63191;39.566;2.654;2023-03-01T00:33:12;10.50;;;3.00;;
74660;SDS011;63191;39.566;2.654;2023-03-01T00:35:38;9.00;;;1.70;;
74660;SDS011;63191;39.566;2.654;2023-03-01T00:38:04;6.30;;;1.60;;
74660;SDS011;63191;39.566;2.654;2023-03-01T00:40:33;16.50;;;4.60;;
74660;SDS011;63191;39.566;2.654;2023-03-01T00:43:00;12.60;;;3.50;;
74660;SDS011;63191;39.566;2.654;2023-03-01T00:45:26;11.80;;;2.90;;
74660;SDS011;63191;39.566;2.654;2023-03-01T00:47:52;12.40;;;3.00;;
74660;SDS011;63191;39.566;2.654;2023-03-01T00:50:18;14.50;;;2.80;;
74660;SDS011;63191;39.566;2.654;2023-03-01T00:52:45;11.70;;;2.40;;
74660;SDS011;63191;39.566;2.654;2023-03-01T00:55:10;8.40;;;1.80;;
74660;SDS011;63191;39.566;2.654;2023-03-01T00:57:37;9.40;;;1.90;;
74660;SDS011;63191;39.566;2.654;2023-03-01T01:00:05;11.30;;;2.30;;
74660;SDS011;63191;39.566;2.654;2023-03-01T01:02:34;8.20;;;2.10;;
74660;SDS011;63191;39.566;2.654;2023-03-01T01:05:00;8.10;;;1.70;;
74660;SDS011;63191;39.566;2.654;2023-03-01T01:07:26;11.50;;;1.80;;
74660;SDS011;63191;39.566;2.654;2023-03-01T01:09:52;9.80;;;1.60;;
74660;SDS011;63191;39.566;2.654;2023-03-01T01:12:18;6.90;;;1.40;;
74660;SDS011;63191;39.566;2.654;2023-03-01T01:14:44;8.30;;;1.50;;
74660;SDS011;63191;39.566;2.654;2023-03-01T01:17:09;5.60;;;1.30;;
74660;SDS011;63191;39.566;2.654;2023-03-01T01:19:35;11.40;;;2.10;;
74660;SDS011;63191;39.566;2.654;2023-03-01T01:22:01;8.90;;;1.50;;
74660;SDS011;63191;39.566;2.654;2023-03-01T01:24:28;7.30;;;0.90;;
74660;SDS011;63191;39.566;2.654;2023-03-01T01:26:54;8.10;;;1.30;;
74660;SDS011;63191;39.566;2.654;2023-03-01T01:29:20;7.60;;;1.00;;
74660;SDS011;63191;39.566;2.654;2023-03-01T01:31:46;8.20;;;1.60;;
74660;SDS011;63191;39.566;2.654;2023-03-01T01:34:17;8.20;;;1.00;;
74660;SDS011;63191;39.566;2.654;2023-03-01T01:36:48;5.60;;;1.00;;
74660;SDS011;63191;39.566;2.654;2023-03-01T01:39:15;5.10;;;1.00;;
74660;SDS011;63191;39.566;2.654;2023-03-01T01:41:41;6.20;;;1.00;;
74660;SDS011;63191;39.566;2.654;2023-03-01T01:44:17;7.70;;;1.40;;
74660;SDS011;63191;39.566;2.654;2023-03-01T01:46:52;6.60;;;1.10;;
74660;SDS011;63191;39.566;2.654;2023-03-01T01:49:32;4.70;;;1.30;;
74660;SDS011;63191;39.566;2.654;2023-03-01T01:52:19;6.80;;;1.40;;
74660;SDS011;63191;39.566;2.654;2023-03-01T01:55:16;6.50;;;1.00;;
74660;SDS011;63191;39.566;2.654;2023-03-01T01:57:53;5.80;;;1.20;;
74660;SDS011;63191;39.566;2.654;2023-03-01T02:00:26;6.50;;;1.50;;
74660;SDS011;63191;39.566;2.654;2023-03-01T02:03:01;7.70;;;1.30;;
74660;SDS011;63191;39.566;2.654;2023-03-01T02:08:05;6.80;;;1.20;;
74660;SDS011;63191;39.566;2.654;2023-03-01T02:10:33;6.60;;;1.10;;
74660;SDS011;63191;39.566;2.654;2023-03-01T02:13:01;8.50;;;1.80;;
74660;SDS011;63191;39.566;2.654;2023-03-01T02:15:32;9.00;;;1.60;;
74660;SDS011;63191;39.566;2.654;2023-03-01T02:17:59;6.30;;;1.40;;
74660;SDS011;63191;39.566;2.654;2023-03-01T02:23:19;8.20;;;1.20;;
74660;SDS011;63191;39.566;2.654;2023-03-01T02:26:21;8.10;;;1.20;;
74660;SDS011;63191;39.566;2.654;2023-03-01T02:28:51;6.30;;;1.10;;
74660;SDS011;63191;39.566;2.654;2023-03-01T02:31:19;5.70;;;1.30;;
74660;SDS011;63191;39.566;2.654;2023-03-01T02:34:06;7.40;;;1.30;;
74660;SDS011;63191;39.566;2.654;2023-03-01T02:36:39;11.00;;;1.80;;
74660;SDS011;63191;39.566;2.654;2023-03-01T02:39:17;7.30;;;1.70;;
74660;SDS011;63191;39.566;2.654;2023-03-01T02:41:50;13.60;;;2.40;;
74660;SDS011;63191;39.566;2.654;2023-03-01T02:44:18;9.80;;;1.70;;
74660;SDS011;63191;39.566;2.654;2023-03-01T02:46:48;8.50;;;1.70;;
74660;SDS011;63191;39.566;2.654;2023-03-01T02:49:22;6.90;;;1.50;;
74660;SDS011;63191;39.566;2.654;2023-03-01T02:52:27;8.50;;;1.70;;
74660;SDS011;63191;39.566;2.654;2023-03-01T02:57:35;9.70;;;2.00;;
74660;SDS011;63191;39.566;2.654;2023-03-01T03:00:08;8.90;;;2.10;;
74660;SDS011;63191;39.566;2.654;2023-03-01T03:02:45;12.00;;;2.80;;
74660;SDS011;63191;39.566;2.654;2023-03-01T03:05:18;8.40;;;1.80;;
74660;SDS011;63191;39.566;2.654;2023-03-01T03:07:47;8.00;;;1.90;;
74660;SDS011;63191;39.566;2.654;2023-03-01T03:10:16;7.70;;;1.80;;
74660;SDS011;63191;39.566;2.654;2023-03-01T03:12:49;7.10;;;1.70;;
74660;SDS011;63191;39.566;2.654;2023-03-01T03:15:21;8.40;;;1.70;;
74660;SDS011;63191;39.566;2.654;2023-03-01T03:17:47;11.40;;;1.80;;
74660;SDS011;63191;39.566;2.654;2023-03-01T03:20:16;8.10;;;1.50;;
74660;SDS011;63191;39.566;2.654;2023-03-01T03:22:49;10.90;;;1.90;;
74660;SDS011;63191;39.566;2.654;2023-03-01T03:25:17;9.60;;;1.60;;
74660;SDS011;63191;39.566;2.654;2023-03-01T03:27:45;7.50;;;1.80;;
74660;SDS011;63191;39.566;2.654;2023-03-01T03:30:19;11.70;;;1.70;;
74660;SDS011;63191;39.566;2.654;2023-03-01T03:32:47;11.50;;;2.00;;
74660;SDS011;63191;39.566;2.654;2023-03-01T03:35:28;7.10;;;1.60;;
74660;SDS011;63191;39.566;2.654;2023-03-01T03:38:04;6.10;;;1.90;;
74660;SDS011;63191;39.566;2.654;2023-03-01T03:40:39;8.90;;;1.90;;
74660;SDS011;63191;39.566;2.654;2023-03-01T03:43:14;10.80;;;1.60;;
74660;SDS011;63191;39.566;2.654;2023-03-01T03:45:47;6.30;;;1.30;;
74660;SDS011;63191;39.566;2.654;2023-03-01T03:48:14;6.40;;;1.20;;
74660;SDS011;63191;39.566;2.654;2023-03-01T03:50:40;9.10;;;1.60;;
74660;SDS011;63191;39.566;2.654;2023-03-01T03:53:10;9.40;;;1.30;;
74660;SDS011;63191;39.566;2.654;2023-03-01T03:55:38;4.70;;;0.80;;
74660;SDS011;63191;39.566;2.654;2023-03-01T03:58:09;8.00;;;1.00;;
74660;SDS011;63191;39.566;2.654;2023-03-01T04:00:44;5.70;;;0.90;;
74660;SDS011;63191;39.566;2.654;2023-03-01T04:03:11;5.00;;;1.20;;
74660;SDS011;63191;39.566;2.654;2023-03-01T04:05:38;5.70;;;0.80;;
74660;SDS011;63191;39.566;2.654;2023-03-01T04:08:05;7.20;;;0.80;;
74660;SDS011;63191;39.566;2.654;2023-03-01T04:10:35;8.60;;;1.00;;
74660;SDS011;63191;39.566;2.654;2023-03-01T04:13:03;3.80;;;0.60;;
74660;SDS011;63191;39.566;2.654;2023-03-01T04:15:30;4.50;;;0.80;;
74660;SDS011;63191;39.566;2.654;2023-03-01T04:17:58;5.10;;;1.00;;
74660;SDS011;63191;39.566;2.654;2023-03-01T04:20:30;4.40;;;0.60;;
74660;SDS011;63191;39.566;2.654;2023-03-01T04:23:01;5.50;;;0.90;;
74660;SDS011;63191;39.566;2.654;2023-03-01T04:25:40;4.60;;;0.70;;
74660;SDS011;63191;39.566;2.654;2023-03-01T04:28:08;2.60;;;0.50;;
74660;SDS011;63191;39.566;2.654;2023-03-01T04:30:36;5.60;;;0.90;;
74660;SDS011;63191;39.566;2.654;2023-03-01T04:33:07;6.40;;;0.90;;
74660;SDS011;63191;39.566;2.654;2023-03-01T04:35:35;4.70;;;1.00;;
74660;SDS011;63191;39.566;2.654;2023-03-01T04:38:02;3.10;;;0.80;;
74660;SDS011;63191;39.566;2.654;2023-03-01T04:40:28;3.80;;;0.80;;
74660;SDS011;63191;39.566;2.654;2023-03-01T04:42:54;9.90;;;1.00;;
74660;SDS011;63191;39.566;2.654;2023-03-01T04:45:20;4.70;;;0.70;;
74660;SDS011;63191;39.566;2.654;2023-03-01T04:47:46;4.70;;;0.60;;
74660;SDS011;63191;39.566;2.654;2023-03-01T04:50:15;8.40;;;0.90;;
74660;SDS011;63191;39.566;2.654;2023-03-01T04:52:43;5.10;;;0.80;;
74660;SDS011;63191;39.566;2.654;2023-03-01T04:55:10;8.00;;;0.90;;
74660;SDS011;63191;39.566;2.654;2023-03-01T04:57:36;4.90;;;0.70;;
74660;SDS011;63191;39.566;2.654;2023-03-01T05:00:05;6.50;;;0.60;;
74660;SDS011;63191;39.566;2.654;2023-03-01T05:07:55;6.50;;;1.10;;
74660;SDS011;63191;39.566;2.654;2023-03-01T05:10:25;5.50;;;0.50;;
74660;SDS011;63191;39.566;2.654;2023-03-01T05:12:54;7.90;;;0.70;;
74660;SDS011;63191;39.566;2.654;2023-03-01T05:15:23;5.60;;;0.50;;
74660;SDS011;63191;39.566;2.654;2023-03-01T05:17:54;8.20;;;0.90;;
74660;SDS011;63191;39.566;2.654;2023-03-01T05:20:24;5.20;;;0.80;;
74660;SDS011;63191;39.566;2.654;2023-03-01T05:22:51;6.00;;;0.70;;
74660;SDS011;63191;39.566;2.654;2023-03-01T05:25:19;8.00;;;0.80;;
74660;SDS011;63191;39.566;2.654;2023-03-01T05:27:47;8.20;;;0.90;;
74660;SDS011;63191;39.566;2.654;2023-03-01T05:30:14;3.00;;;0.60;;
74660;SDS011;63191;39.566;2.654;2023-03-01T05:32:42;6.30;;;1.10;;
74660;SDS011;63191;39.566;2.654;2023-03-01T05:35:14;3.20;;;0.70;;
74660;SDS011;63191;39.566;2.654;2023-03-01T05:37:46;4.20;;;0.50;;
74660;SDS011;63191;39.566;2.654;2023-03-01T05:40:15;3.20;;;0.50;;
74660;SDS011;63191;39.566;2.654;2023-03-01T05:42:53;4.30;;;0.70;;
74660;SDS011;63191;39.566;2.654;2023-03-01T05:45:21;5.60;;;0.80;;
74660;SDS011;63191;39.566;2.654;2023-03-01T05:47:49;6.30;;;0.80;;
74660;SDS011;63191;39.566;2.654;2023-03-01T05:50:17;4.40;;;0.80;;
74660;SDS011;63191;39.566;2.654;2023-03-01T05:52:47;5.90;;;0.60;;
74660;SDS011;63191;39.566;2.654;2023-03-01T05:55:33;3.40;;;0.60;;
74660;SDS011;63191;39.566;2.654;2023-03-01T05:58:01;6.10;;;0.80;;
74660;SDS011;63191;39.566;2.654;2023-03-01T06:00:29;3.40;;;0.50;;
74660;SDS011;63191;39.566;2.654;2023-03-01T06:02:56;2.80;;;0.60;;
74660;SDS011;63191;39.566;2.654;2023-03-01T06:05:23;3.10;;;0.50;;
74660;SDS011;63191;39.566;2.654;2023-03-01T06:07:50;3.20;;;0.70;;
74660;SDS011;63191;39.566;2.654;2023-03-01T06:10:17;3.00;;;0.40;;
74660;SDS011;63191;39.566;2.654;2023-03-01T06:12:43;4.30;;;0.70;;
74660;SDS011;63191;39.566;2.654;2023-03-01T06:15:12;2.40;;;0.50;;
74660;SDS011;63191;39.566;2.654;2023-03-01T06:17:41;4.00;;;0.70;;
74660;SDS011;63191;39.566;2.654;2023-03-01T06:20:15;4.50;;;0.40;;
74660;SDS011;63191;39.566;2.654;2023-03-01T06:22:43;4.50;;;0.70;;
74660;SDS011;63191;39.566;2.654;2023-03-01T06:25:11;4.50;;;0.60;;
74660;SDS011;63191;39.566;2.654;2023-03-01T06:27:38;3.40;;;0.50;;
74660;SDS011;63191;39.566;2.654;2023-03-01T06:30:05;5.50;;;0.70;;
74660;SDS011;63191;39.566;2.654;2023-03-01T06:32:33;3.10;;;0.50;;
74660;SDS011;63191;39.566;2.654;2023-03-01T06:34:58;4.70;;;1.00;;
74660;SDS011;63191;39.566;2.654;2023-03-01T06:37:28;4.80;;;0.60;;
74660;SDS011;63191;39.566;2.654;2023-03-01T06:39:53;5.60;;;0.70;;
74660;SDS011;63191;39.566;2.654;2023-03-01T06:42:19;7.40;;;0.80;;
74660;SDS011;63191;39.566;2.654;2023-03-01T06:44:45;4.20;;;0.50;;
74660;SDS011;63191;39.566;2.654;2023-03-01T06:47:11;4.70;;;0.80;;
74660;SDS011;63191;39.566;2.654;2023-03-01T06:49:37;3.80;;;0.80;;
74660;SDS011;63191;39.566;2.654;2023-03-01T06:52:02;4.40;;;0.70;;
74660;SDS011;63191;39.566;2.654;2023-03-01T06:54:28;6.00;;;0.70;;
74660;SDS011;63191;39.566;2.654;2023-03-01T06:56:54;5.70;;;0.90;;
74660;SDS011;63191;39.566;2.654;2023-03-01T06:59:20;4.40;;;0.70;;
74660;SDS011;63191;39.566;2.654;2023-03-01T07:01:46;6.30;;;0.70;;
74660;SDS011;63191;39.566;2.654;2023-03-01T07:04:12;5.60;;;0.60;;
74660;SDS011;63191;39.566;2.654;2023-03-01T07:06:39;7.50;;;0.80;;
74660;SDS011;63191;39.566;2.654;2023-03-01T07:09:05;4.40;;;0.80;;
74660;SDS011;63191;39.566;2.654;2023-03-01T07:11:31;5.40;;;0.60;;
74660;SDS011;63191;39.566;2.654;2023-03-01T07:13:57;4.90;;;0.60;;
74660;SDS011;63191;39.566;2.654;2023-03-01T07:16:25;4.90;;;1.00;;
74660;SDS011;63191;39.566;2.654;2023-03-01T07:18:51;3.90;;;0.60;;
74660;SDS011;63191;39.566;2.654;2023-03-01T07:21:18;6.60;;;0.80;;
74660;SDS011;63191;39.566;2.654;2023-03-01T07:23:47;6.40;;;0.80;;
74660;SDS011;63191;39.566;2.654;2023-03-01T07:26:13;5.00;;;0.90;;
74660;SDS011;63191;39.566;2.654;2023-03-01T07:28:39;6.40;;;1.00;;
74660;SDS011;63191;39.566;2.654;2023-03-01T07:31:06;5.90;;;1.00;;
74660;SDS011;63191;39.566;2.654;2023-03-01T07:33:32;5.20;;;1.00;;
74660;SDS011;63191;39.566;2.654;2023-03-01T07:36:00;5.10;;;0.90;;
74660;SDS011;63191;39.566;2.654;2023-03-01T07:38:28;5.40;;;1.10;;
74660;SDS011;63191;39.566;2.654;2023-03-01T07:40:58;5.90;;;1.20;;
74660;SDS011;63191;39.566;2.654;2023-03-01T07:43:26;6.00;;;1.20;;
74660;SDS011;63191;39.566;2.654;2023-03-01T07:45:53;6.40;;;1.40;;
74660;SDS011;63191;39.566;2.654;2023-03-01T07:48:19;5.60;;;1.40;;
74660;SDS011;63191;39.566;2.654;2023-03-01T07:50:44;5.00;;;1.40;;
74660;SDS011;63191;39.566;2.654;2023-03-01T07:53:10;5.40;;;1.50;;
74660;SDS011;63191;39.566;2.654;2023-03-01T07:55:36;7.70;;;1.50;;
74660;SDS011;63191;39.566;2.654;2023-03-01T07:58:02;5.80;;;1.50;;
74660;SDS011;63191;39.566;2.654;2023-03-01T08:00:28;6.50;;;1.90;;
74660;SDS011;63191;39.566;2.654;2023-03-01T08:02:54;7.30;;;1.80;;
74660;SDS011;63191;39.566;2.654;2023-03-01T08:05:20;6.10;;;1.80;;
74660;SDS011;63191;39.566;2.654;2023-03-01T08:07:47;4.60;;;1.50;;
74660;SDS011;63191;39.566;2.654;2023-03-01T08:10:13;6.20;;;1.50;;
74660;SDS011;63191;39.566;2.654;2023-03-01T08:12:39;6.30;;;1.80;;
74660;SDS011;63191;39.566;2.654;2023-03-01T08:15:05;6.60;;;1.90;;
74660;SDS011;63191;39.566;2.654;2023-03-01T08:17:32;7.70;;;2.70;;
74660;SDS011;63191;39.566;2.654;2023-03-01T08:19:57;6.00;;;1.90;;
74660;SDS011;63191;39.566;2.654;2023-03-01T08:22:23;6.30;;;1.60;;
74660;SDS011;63191;39.566;2.654;2023-03-01T08:24:49;4.70;;;1.50;;
74660;SDS011;63191;39.566;2.654;2023-03-01T08:27:16;6.70;;;2.00;;
74660;SDS011;63191;39.566;2.654;2023-03-01T08:29:42;5.70;;;1.90;;
74660;SDS011;63191;39.566;2.654;2023-03-01T08:32:08;4.90;;;1.70;;
74660;SDS011;63191;39.566;2.654;2023-03-01T08:34:34;5.90;;;1.40;;
74660;SDS011;63191;39.566;2.654;2023-03-01T08:37:01;5.80;;;1.40;;
74660;SDS011;63191;39.566;2.654;2023-03-01T08:39:27;6.30;;;1.10;;
74660;SDS011;63191;39.566;2.654;2023-03-01T08:41:53;6.90;;;1.20;;
74660;SDS011;63191;39.566;2.654;2023-03-01T08:44:19;5.00;;;0.90;;
74660;SDS011;63191;39.566;2.654;2023-03-01T08:46:46;4.60;;;0.90;;
74660;SDS011;63191;39.566;2.654;2023-03-01T08:49:17;4.70;;;0.70;;
74660;SDS011;63191;39.566;2.654;2023-03-01T08:51:44;6.50;;;1.30;;
74660;SDS011;63191;39.566;2.654;2023-03-01T08:54:19;6.70;;;1.00;;
74660;SDS011;63191;39.566;2.654;2023-03-01T08:56:46;5.10;;;0.90;;
74660;SDS011;63191;39.566;2.654;2023-03-01T08:59:13;4.60;;;0.70;;
74660;SDS011;63191;39.566;2.654;2023-03-01T09:01:40;5.70;;;1.10;;
74660;SDS011;63191;39.566;2.654;2023-03-01T09:04:09;6.60;;;0.90;;
74660;SDS011;63191;39.566;2.654;2023-03-01T09:06:35;8.00;;;1.20;;
74660;SDS011;63191;39.566;2.654;2023-03-01T09:09:03;4.40;;;0.80;;
74660;SDS011;63191;39.566;2.654;2023-03-01T09:11:30;4.70;;;1.10;;
74660;SDS011;63191;39.566;2.654;2023-03-01T09:13:55;4.20;;;1.20;;
74660;SDS011;63191;39.566;2.654;2023-03-01T09:16:22;4.40;;;0.90;;
74660;SDS011;63191;39.566;2.654;2023-03-01T09:18:53;4.50;;;0.80;;
74660;SDS011;63191;39.566;2.654;2023-03-01T09:21:21;5.10;;;0.70;;
74660;SDS011;63191;39.566;2.654;2023-03-01T09:23:49;4.70;;;0.70;;
74660;SDS011;63191;39.566;2.654;2023-03-01T09:26:20;6.30;;;0.60;;
74660;SDS011;63191;39.566;2.654;2023-03-01T09:28:49;6.90;;;0.90;;
74660;SDS011;63191;39.566;2.654;2023-03-01T09:31:17;4.30;;;0.70;;
74660;SDS011;63191;39.566;2.654;2023-03-01T09:33:48;6.20;;;0.80;;
74660;SDS011;63191;39.566;2.654;2023-03-01T09:36:18;7.60;;;1.00;;
74660;SDS011;63191;39.566;2.654;2023-03-01T09:38:46;6.80;;;1.00;;
74660;SDS011;63191;39.566;2.654;2023-03-01T09:44:42;5.40;;;0.90;;
74660;SDS011;63191;39.566;2.654;2023-03-01T09:47:24;3.90;;;0.80;;
74660;SDS011;63191;39.566;2.654;2023-03-01T09:53:02;6.20;;;1.60;;
74660;SDS011;63191;39.566;2.654;2023-03-01T09:55:35;4.50;;;1.10;;
74660;SDS011;63191;39.566;2.654;2023-03-01T09:58:25;4.80;;;1.00;;
74660;SDS011;63191;39.566;2.654;2023-03-01T10:01:11;5.20;;;1.00;;
74660;SDS011;63191;39.566;2.654;2023-03-01T10:03:45;4.00;;;1.00;;
74660;SDS011;63191;39.566;2.654;2023-03-01T10:06:24;2.80;;;0.60;;
74660;SDS011;63191;39.566;2.654;2023-03-01T10:08:59;4.20;;;0.50;;
74660;SDS011;63191;39.566;2.654;2023-03-01T10:11:51;4.00;;;0.80;;
74660;SDS011;63191;39.566;2.654;2023-03-01T10:14:43;4.10;;;0.80;;
74660;SDS011;63191;39.566;2.654;2023-03-01T10:17:44;5.70;;;1.20;;
74660;SDS011;63191;39.566;2.654;2023-03-01T10:20:22;6.70;;;1.20;;
74660;SDS011;63191;39.566;2.654;2023-03-01T10:22:54;3.70;;;0.70;;
74660;SDS011;63191;39.566;2.654;2023-03-01T10:28:39;3.60;;;0.80;;
74660;SDS011;63191;39.566;2.654;2023-03-01T10:31:26;5.40;;;1.20;;
74660;SDS011;63191;39.566;2.654;2023-03-01T10:34:12;4.60;;;1.20;;
74660;SDS011;63191;39.566;2.654;2023-03-01T10:36:39;7.10;;;1.80;;
74660;SDS011;63191;39.566;2.654;2023-03-01T10:39:19;4.60;;;1.70;;
74660;SDS011;63191;39.566;2.654;2023-03-01T10:42:01;3.80;;;1.00;;
74660;SDS011;63191;39.566;2.654;2023-03-01T10:44:52;4.30;;;1.70;;
74660;SDS011;63191;39.566;2.654;2023-03-01T10:47:24;5.50;;;2.00;;
74660;SDS011;63191;39.566;2.654;2023-03-01T10:52:36;4.60;;;2.20;;
74660;SDS011;63191;39.566;2.654;2023-03-01T10:55:34;5.00;;;2.70;;
74660;SDS011;63191;39.566;2.654;2023-03-01T11:00:54;6.60;;;2.50;;
74660;SDS011;63191;39.566;2.654;2023-03-01T11:03:25;8.40;;;3.20;;
74660;SDS011;63191;39.566;2.654;2023-03-01T11:08:46;5.50;;;3.20;;
74660;SDS011;63191;39.566;2.654;2023-03-01T11:16:46;5.70;;;3.70;;
74660;SDS011;63191;39.566;2.654;2023-03-01T11:19:17;6.10;;;4.10;;
74660;SDS011;63191;39.566;2.654;2023-03-01T11:21:58;5.80;;;3.90;;
74660;SDS011;63191;39.566;2.654;2023-03-01T11:24:37;5.90;;;2.10;;
74660;SDS011;63191;39.566;2.654;2023-03-01T11:29:42;6.00;;;3.10;;
74660;SDS011;63191;39.566;2.654;2023-03-01T11:32:13;6.40;;;3.30;;
74660;SDS011;63191;39.566;2.654;2023-03-01T11:34:45;5.20;;;2.20;;
74660;SDS011;63191;39.566;2.654;2023-03-01T11:37:37;7.30;;;2.80;;
74660;SDS011;63191;39.566;2.654;2023-03-01T11:40:17;3.50;;;2.00;;
74660;SDS011;63191;39.566;2.654;2023-03-01T12:00:32;2.30;;;1.10;;
74660;SDS011;63191;39.566;2.654;2023-03-01T12:03:30;4.90;;;1.50;;
74660;SDS011;63191;39.566;2.654;2023-03-01T12:18:11;4.90;;;2.30;;
74660;SDS011;63191;39.566;2.654;2023-03-01T12:21:01;6.40;;;2.60;;
74660;SDS011;63191;39.566;2.654;2023-03-01T12:32:02;5.50;;;4.00;;
74660;SDS011;63191;39.566;2.654;2023-03-01T12:43:36;7.40;;;5.20;;
74660;SDS011;63191;39.566;2.654;2023-03-01T12:49:39;9.10;;;6.20;;
74660;SDS011;63191;39.566;2.654;2023-03-01T12:52:22;7.20;;;5.60;;
74660;SDS011;63191;39.566;2.654;2023-03-01T12:55:33;7.20;;;6.40;;
74660;SDS011;63191;39.566;2.654;2023-03-01T13:02:22;8.40;;;7.30;;
74660;SDS011;63191;39.566;2.654;2023-03-01T13:07:57;7.80;;;7.00;;
74660;SDS011;63191;39.566;2.654;2023-03-01T13:10:42;8.20;;;7.40;;
74660;SDS011;63191;39.566;2.654;2023-03-01T13:13:24;8.50;;;6.60;;
74660;SDS011;63191;39.566;2.654;2023-03-01T13:15:51;8.50;;;6.70;;
74660;SDS011;63191;39.566;2.654;2023-03-01T13:20:49;7.10;;;5.10;;
74660;SDS011;63191;39.566;2.654;2023-03-01T13:26:08;6.40;;;5.70;;
74660;SDS011;63191;39.566;2.654;2023-03-01T13:34:06;5.30;;;3.90;;
74660;SDS011;63191;39.566;2.654;2023-03-01T13:37:13;5.10;;;3.90;;
74660;SDS011;63191;39.566;2.654;2023-03-01T13:39:56;6.00;;;3.70;;
74660;SDS011;63191;39.566;2.654;2023-03-01T13:42:37;7.00;;;3.50;;
74660;SDS011;63191;39.566;2.654;2023-03-01T13:47:56;3.90;;;2.70;;
74660;SDS011;63191;39.566;2.654;2023-03-01T13:50:38;4.50;;;2.70;;
74660;SDS011;63191;39.566;2.654;2023-03-01T13:53:15;5.40;;;2.60;;
74660;SDS011;63191;39.566;2.654;2023-03-01T13:55:56;6.00;;;2.40;;
74660;SDS011;63191;39.566;2.654;2023-03-01T13:58:28;6.70;;;2.10;;
74660;SDS011;63191;39.566;2.654;2023-03-01T14:01:01;4.50;;;2.20;;
74660;SDS011;63191;39.566;2.654;2023-03-01T14:03:30;4.20;;;2.10;;
74660;SDS011;63191;39.566;2.654;2023-03-01T14:06:08;4.30;;;1.60;;
74660;SDS011;63191;39.566;2.654;2023-03-01T14:08:44;3.50;;;1.30;;
74660;SDS011;63191;39.566;2.654;2023-03-01T14:19:33;4.90;;;1.00;;
74660;SDS011;63191;39.566;2.654;2023-03-01T14:25:02;4.20;;;1.00;;
74660;SDS011;63191;39.566;2.654;2023-03-01T14:27:39;2.70;;;0.80;;
74660;SDS011;63191;39.566;2.654;2023-03-01T14:30:46;3.90;;;0.90;;
74660;SDS011;63191;39.566;2.654;2023-03-01T14:33:32;5.70;;;1.00;;
74660;SDS011;63191;39.566;2.654;2023-03-01T14:36:12;3.60;;;0.80;;
74660;SDS011;63191;39.566;2.654;2023-03-01T14:38:43;2.20;;;0.50;;
74660;SDS011;63191;39.566;2.654;2023-03-01T14:41:25;3.70;;;1.00;;
74660;SDS011;63191;39.566;2.654;2023-03-01T14:43:58;4.20;;;0.80;;
74660;SDS011;63191;39.566;2.654;2023-03-01T14:46:35;4.60;;;1.00;;
74660;SDS011;63191;39.566;2.654;2023-03-01T14:51:42;3.00;;;1.10;;
74660;SDS011;63191;39.566;2.654;2023-03-01T14:54:20;4.50;;;0.80;;
74660;SDS011;63191;39.566;2.654;2023-03-01T14:56:52;5.30;;;0.80;;
74660;SDS011;63191;39.566;2.654;2023-03-01T14:59:23;4.00;;;0.90;;
74660;SDS011;63191;39.566;2.654;2023-03-01T15:01:51;4.00;;;1.00;;
74660;SDS011;63191;39.566;2.654;2023-03-01T15:04:21;4.20;;;0.60;;
74660;SDS011;63191;39.566;2.654;2023-03-01T15:06:51;6.50;;;1.50;;
74660;SDS011;63191;39.566;2.654;2023-03-01T15:09:18;5.20;;;1.10;;
74660;SDS011;63191;39.566;2.654;2023-03-01T15:11:45;4.70;;;1.30;;
74660;SDS011;63191;39.566;2.654;2023-03-01T15:14:42;4.70;;;0.80;;
74660;SDS011;63191;39.566;2.654;2023-03-01T15:20:03;2.30;;;0.40;;
74660;SDS011;63191;39.566;2.654;2023-03-01T15:22:36;3.30;;;0.80;;
74660;SDS011;63191;39.566;2.654;2023-03-01T15:25:02;3.80;;;0.60;;
74660;SDS011;63191;39.566;2.654;2023-03-01T15:27:27;2.30;;;0.50;;
74660;SDS011;63191;39.566;2.654;2023-03-01T15:29:58;8.90;;;2.00;;
74660;SDS011;63191;39.566;2.654;2023-03-01T15:32:33;2.30;;;0.70;;
74660;SDS011;63191;39.566;2.654;2023-03-01T15:35:41;4.10;;;0.90;;
74660;SDS011;63191;39.566;2.654;2023-03-01T15:38:28;3.90;;;0.90;;
74660;SDS011;63191;39.566;2.654;2023-03-01T15:40:55;3.30;;;1.00;;
74660;SDS011;63191;39.566;2.654;2023-03-01T15:43:42;8.00;;;1.80;;
74660;SDS011;63191;39.566;2.654;2023-03-01T15:46:18;5.10;;;1.10;;
74660;SDS011;63191;39.566;2.654;2023-03-01T15:48:55;6.10;;;1.80;;
74660;SDS011;63191;39.566;2.654;2023-03-01T15:51:37;7.40;;;2.60;;
74660;SDS011;63191;39.566;2.654;2023-03-01T15:54:18;8.50;;;2.10;;
74660;SDS011;63191;39.566;2.654;2023-03-01T15:56:45;4.60;;;0.70;;
74660;SDS011;63191;39.566;2.654;2023-03-01T15:59:12;3.60;;;0.70;;
74660;SDS011;63191;39.566;2.654;2023-03-01T16:01:41;3.80;;;0.80;;
74660;SDS011;63191;39.566;2.654;2023-03-01T16:04:12;4.60;;;0.70;;
74660;SDS011;63191;39.566;2.654;2023-03-01T16:06:46;5.00;;;0.50;;
74660;SDS011;63191;39.566;2.654;2023-03-01T16:09:23;5.20;;;0.90;;
74660;SDS011;63191;39.566;2.654;2023-03-01T16:11:50;2.50;;;0.40;;
74660;SDS011;63191;39.566;2.654;2023-03-01T16:14:17;5.60;;;1.00;;
74660;SDS011;63191;39.566;2.654;2023-03-01T16:16:44;5.30;;;1.30;;
74660;SDS011;63191;39.566;2.654;2023-03-01T16:19:11;2.60;;;0.50;;
74660;SDS011;63191;39.566;2.654;2023-03-01T16:21:37;2.30;;;0.40;;
74660;SDS011;63191;39.566;2.654;2023-03-01T16:24:04;3.80;;;0.40;;
74660;SDS011;63191;39.566;2.654;2023-03-01T16:26:30;6.30;;;1.00;;
74660;SDS011;63191;39.566;2.654;2023-03-01T16:28:56;2.50;;;0.60;;
74660;SDS011;63191;39.566;2.654;2023-03-01T16:31:24;8.20;;;1.60;;
74660;SDS011;63191;39.566;2.654;2023-03-01T16:33:56;2.50;;;0.50;;
74660;SDS011;63191;39.566;2.654;2023-03-01T16:36:26;4.30;;;0.70;;
74660;SDS011;63191;39.566;2.654;2023-03-01T16:38:54;4.10;;;0.80;;
74660;SDS011;63191;39.566;2.654;2023-03-01T16:41:22;5.80;;;0.80;;
74660;SDS011;63191;39.566;2.654;2023-03-01T16:43:49;1.90;;;0.40;;
74660;SDS011;63191;39.566;2.654;2023-03-01T16:46:18;4.50;;;0.70;;
74660;SDS011;63191;39.566;2.654;2023-03-01T16:48:47;5.30;;;1.00;;
74660;SDS011;63191;39.566;2.654;2023-03-01T16:51:13;4.90;;;0.60;;
74660;SDS011;63191;39.566;2.654;2023-03-01T16:53:39;1.70;;;0.50;;
74660;SDS011;63191;39.566;2.654;2023-03-01T16:56:08;4.90;;;0.60;;
74660;SDS011;63191;39.566;2.654;2023-03-01T16:58:36;1.80;;;0.30;;
74660;SDS011;63191;39.566;2.654;2023-03-01T17:01:08;3.90;;;0.60;;
74660;SDS011;63191;39.566;2.654;2023-03-01T17:03:34;9.70;;;1.00;;
74660;SDS011;63191;39.566;2.654;2023-03-01T17:06:05;3.60;;;0.60;;
74660;SDS011;63191;39.566;2.654;2023-03-01T17:08:33;6.00;;;0.90;;
74660;SDS011;63191;39.566;2.654;2023-03-01T17:11:04;3.80;;;0.60;;
74660;SDS011;63191;39.566;2.654;2023-03-01T17:13:32;3.40;;;0.50;;
74660;SDS011;63191;39.566;2.654;2023-03-01T17:15:57;2.40;;;0.60;;
74660;SDS011;63191;39.566;2.654;2023-03-01T17:18:23;4.70;;;0.90;;